createdAt,value
2018-02-27T00:02:16.982Z,8.83
2018-02-27T00:04:45.303Z,7.97
2018-02-27T00:07:14.498Z,7.93
2018-02-27T00:09:44.505Z,5.93
2018-02-27T00:12:15.507Z,7.60
2018-02-27T00:14:43.857Z,7.77
2018-02-27T00:17:13.014Z,9.13
2018-02-27T00:19:41.445Z,8.53
2018-02-27T00:22:09.742Z,7.53
2018-02-27T00:24:40.593Z,8.43
2018-02-27T00:27:08.947Z,8.40
2018-02-27T00:29:39.293Z,7.27
2018-02-27T00:32:08.469Z,7.53
2018-02-27T00:34:36.826Z,8.03
2018-02-27T00:37:07.099Z,8.30
2018-02-27T00:39:38.481Z,8.17
2018-02-27T00:42:07.569Z,8.07
2018-02-27T00:44:35.859Z,9.50
2018-02-27T00:47:04.223Z,9.10
2018-02-27T00:49:32.536Z,8.40
2018-02-27T00:52:01.590Z,7.07
2018-02-27T00:54:29.938Z,7.80
2018-02-27T00:56:58.501Z,8.30
2018-02-27T00:59:26.859Z,7.60
2018-02-27T01:01:59.054Z,8.60
2018-02-27T01:04:29.079Z,8.43
2018-02-27T01:07:01.947Z,8.70
2018-02-27T01:09:31.243Z,8.50
2018-02-27T01:11:59.635Z,8.10
2018-02-27T01:14:29.790Z,7.97
2018-02-27T01:16:58.189Z,7.73
2018-02-27T01:19:28.207Z,7.03
2018-02-27T01:21:56.557Z,8.20
2018-02-27T01:24:24.902Z,7.70
2018-02-27T01:26:54.922Z,8.23
2018-02-27T01:29:24.118Z,8.70
2018-02-27T01:31:52.492Z,9.07
2018-02-27T01:34:21.702Z,7.90
2018-02-27T01:36:50.105Z,7.97
2018-02-27T01:39:20.195Z,9.20
2018-02-27T01:41:50.319Z,8.47
2018-02-27T01:44:18.740Z,7.60
2018-02-27T01:46:47.108Z,8.07
2018-02-27T01:49:16.185Z,9.10
2018-02-27T01:51:45.297Z,8.17
2018-02-27T01:54:13.721Z,8.50
2018-02-27T01:56:42.093Z,9.10
2018-02-27T01:59:10.479Z,6.17
2018-02-27T02:01:39.028Z,8.97
2018-02-27T02:04:07.337Z,9.43
2018-02-27T02:06:35.979Z,7.43
2018-02-27T02:09:04.356Z,7.27
2018-02-27T02:11:33.869Z,9.20
2018-02-27T02:14:02.961Z,9.03
2018-02-27T02:16:33.031Z,8.53
2018-02-27T02:19:01.382Z,9.40
2018-02-27T02:21:32.544Z,8.50
2018-02-27T02:24:00.888Z,9.67
2018-02-27T02:26:29.251Z,9.70
2018-02-27T02:28:57.589Z,9.70
2018-02-27T02:31:25.916Z,11.30
2018-02-27T02:33:55.130Z,10.07
2018-02-27T02:36:23.453Z,10.20
2018-02-27T02:38:51.826Z,9.03
2018-02-27T02:41:23.454Z,9.57
2018-02-27T02:43:51.856Z,10.10
2018-02-27T02:46:21.262Z,10.47
2018-02-27T02:48:51.417Z,10.50
2018-02-27T02:51:21.576Z,10.30
2018-02-27T02:53:50.850Z,11.47
2018-02-27T02:56:22.770Z,11.17
2018-02-27T02:58:52.466Z,10.73
2018-02-27T03:01:20.844Z,10.50
2018-02-27T03:03:51.998Z,10.57
2018-02-27T03:06:22.106Z,9.50
2018-02-27T03:08:51.611Z,11.13
2018-02-27T03:11:20.132Z,10.60
2018-02-27T03:13:48.479Z,10.20
2018-02-27T03:16:16.863Z,9.60
2018-02-27T03:18:46.030Z,10.67
2018-02-27T03:21:14.410Z,10.47
2018-02-27T03:23:42.732Z,11.33
2018-02-27T03:26:11.924Z,11.83
2018-02-27T03:28:40.260Z,10.80
2018-02-27T03:31:08.602Z,11.20
2018-02-27T03:33:36.944Z,10.80
2018-02-27T03:36:07.054Z,11.83
2018-02-27T03:38:35.516Z,11.47
2018-02-27T03:41:03.872Z,11.77
2018-02-27T03:43:32.300Z,13.80
2018-02-27T03:46:01.523Z,12.00
2018-02-27T03:48:29.868Z,11.50
2018-02-27T03:51:00.744Z,12.13
2018-02-27T03:53:29.355Z,10.97
2018-02-27T03:55:58.530Z,11.60
2018-02-27T03:58:28.870Z,11.20
2018-02-27T04:01:01.342Z,10.10
2018-02-27T04:03:29.750Z,9.13
2018-02-27T04:05:58.132Z,12.07
2018-02-27T04:08:26.547Z,10.93
2018-02-27T04:10:56.566Z,11.30
2018-02-27T04:13:26.682Z,10.30
2018-02-27T04:15:55.819Z,12.20
2018-02-27T04:18:25.833Z,10.80
2018-02-27T04:20:54.256Z,11.40
2018-02-27T04:23:22.588Z,10.03
2018-02-27T04:25:51.010Z,11.20
2018-02-27T04:28:20.089Z,11.60
2018-02-27T04:30:48.407Z,11.40
2018-02-27T04:33:16.758Z,10.27
2018-02-27T04:35:45.822Z,12.40
2018-02-27T04:38:14.541Z,10.90
2018-02-27T04:40:43.650Z,10.80
2018-02-27T04:43:12.033Z,11.57
2018-02-27T04:45:40.494Z,11.77
2018-02-27T04:48:11.595Z,11.63
2018-02-27T04:50:39.951Z,9.90
2018-02-27T04:53:08.332Z,10.00
2018-02-27T04:55:37.824Z,10.60
2018-02-27T04:58:06.196Z,11.60
2018-02-27T05:00:36.297Z,11.80
2018-02-27T05:03:04.852Z,12.07
2018-02-27T05:05:35.058Z,10.70
2018-02-27T05:08:06.181Z,11.20
2018-02-27T05:10:36.793Z,11.70
2018-02-27T05:13:05.563Z,10.63
2018-02-27T05:15:34.678Z,8.90
2018-02-27T05:18:03.781Z,10.53
2018-02-27T05:20:32.199Z,11.83
2018-02-27T05:23:03.498Z,12.60
2018-02-27T05:25:31.970Z,9.73
2018-02-27T05:28:04.258Z,11.10
2018-02-27T05:30:32.731Z,11.40
2018-02-27T05:33:01.345Z,11.00
2018-02-27T05:35:32.552Z,11.70
2018-02-27T05:38:00.937Z,12.13
2018-02-27T05:40:29.306Z,10.27
2018-02-27T05:42:59.790Z,13.27
2018-02-27T05:45:28.224Z,11.17
2018-02-27T05:47:56.608Z,10.73
2018-02-27T05:50:26.743Z,10.20
2018-02-27T05:52:55.115Z,10.47
2018-02-27T05:55:23.531Z,11.90
2018-02-27T05:57:51.897Z,11.37
2018-02-27T06:00:21.060Z,9.97
2018-02-27T06:02:49.422Z,10.97
2018-02-27T06:05:17.851Z,10.80
2018-02-27T06:07:48.000Z,11.70
2018-02-27T06:10:16.437Z,11.40
2018-02-27T06:12:47.327Z,11.83
2018-02-27T06:15:16.017Z,12.20
2018-02-27T06:17:44.606Z,13.10
2018-02-27T06:20:12.973Z,11.43
2018-02-27T06:22:41.295Z,11.17
2018-02-27T06:25:11.489Z,11.93
2018-02-27T06:27:39.871Z,12.37
2018-02-27T06:30:09.005Z,14.33
2018-02-27T06:32:37.555Z,12.70
2018-02-27T06:35:05.882Z,11.13
2018-02-27T06:37:34.204Z,12.87
2018-02-27T06:40:02.689Z,11.27
2018-02-27T06:42:32.743Z,13.20
2018-02-27T06:45:04.447Z,13.03
2018-02-27T06:47:32.855Z,10.20
2018-02-27T06:50:03.093Z,12.10
2018-02-27T06:52:33.287Z,12.00
2018-02-27T06:55:01.759Z,10.50
2018-02-27T06:57:30.143Z,11.43
2018-02-27T06:59:58.629Z,12.40
2018-02-27T07:02:28.869Z,12.27
2018-02-27T07:04:58.347Z,11.17
2018-02-27T07:07:26.722Z,10.87
2018-02-27T07:09:55.105Z,11.53
2018-02-27T07:12:24.403Z,12.00
2018-02-27T07:14:54.618Z,12.43
2018-02-27T07:17:27.612Z,4.27
2018-02-27T07:19:57.826Z,9.33
2018-02-27T07:22:26.210Z,7.57
2018-02-27T07:24:55.542Z,10.17
2018-02-27T07:27:25.058Z,12.50
2018-02-27T07:29:53.747Z,10.33
2018-02-27T07:32:22.284Z,11.70
2018-02-27T07:34:53.534Z,12.73
2018-02-27T07:37:21.909Z,13.57
2018-02-27T07:39:50.653Z,11.70
2018-02-27T07:42:19.125Z,11.53
2018-02-27T07:44:49.194Z,11.47
2018-02-27T07:47:17.652Z,11.90
2018-02-27T07:49:46.081Z,13.20
2018-02-27T07:52:14.520Z,12.23
2018-02-27T07:54:43.692Z,12.73
2018-02-27T07:57:12.140Z,10.07
2018-02-27T07:59:41.319Z,12.83
2018-02-27T08:02:09.700Z,11.40
2018-02-27T08:04:38.089Z,11.50
2018-02-27T08:07:07.252Z,11.90
2018-02-27T08:09:38.274Z,9.33
2018-02-27T08:12:06.691Z,11.67
2018-02-27T08:14:35.207Z,12.40
2018-02-27T08:17:03.574Z,10.97
2018-02-27T08:19:33.007Z,12.20
2018-02-27T08:22:01.486Z,9.10
2018-02-27T08:24:30.018Z,11.80
2018-02-27T08:26:58.541Z,11.67
2018-02-27T08:29:28.542Z,12.77
2018-02-27T08:31:57.029Z,14.30
2018-02-27T08:34:27.605Z,11.77
2018-02-27T08:36:58.370Z,13.03
2018-02-27T08:39:26.735Z,13.80
2018-02-27T08:41:56.702Z,11.40
2018-02-27T08:44:25.060Z,13.10
2018-02-27T08:46:53.440Z,12.07
2018-02-27T08:49:24.658Z,10.13
2018-02-27T08:51:53.869Z,11.20
2018-02-27T08:54:23.071Z,11.63
2018-02-27T08:56:51.551Z,12.40
2018-02-27T08:59:21.867Z,9.10
2018-02-27T09:01:51.088Z,12.47
2018-02-27T09:04:19.550Z,11.43
2018-02-27T09:06:48.660Z,10.63
2018-02-27T09:09:17.017Z,10.70
2018-02-27T09:11:46.164Z,11.00
2018-02-27T09:14:14.606Z,11.63
2018-02-27T09:16:44.591Z,10.90
2018-02-27T09:19:14.760Z,10.43
2018-02-27T09:21:43.866Z,12.87
2018-02-27T09:24:12.964Z,13.10
2018-02-27T09:26:41.591Z,12.20
2018-02-27T09:29:11.825Z,13.10
2018-02-27T09:31:41.927Z,11.47
2018-02-27T09:34:10.360Z,13.67
2018-02-27T09:36:38.703Z,10.77
2018-02-27T09:39:07.064Z,9.87
2018-02-27T09:41:35.452Z,11.60
2018-02-27T09:44:03.833Z,10.50
2018-02-27T09:46:32.924Z,10.50
2018-02-27T09:49:01.402Z,11.80
2018-02-27T09:51:31.830Z,12.67
2018-02-27T09:54:02.504Z,7.70
2018-02-27T09:56:30.910Z,12.73
2018-02-27T09:58:59.419Z,13.10
2018-02-27T10:01:29.600Z,12.10
2018-02-27T10:03:58.040Z,12.90
2018-02-27T10:06:26.605Z,17.00
2018-02-27T10:08:55.695Z,14.00
2018-02-27T10:11:24.796Z,13.33
2018-02-27T10:13:53.215Z,15.80
2018-02-27T10:16:23.321Z,15.17
2018-02-27T10:18:53.454Z,9.87
2018-02-27T10:21:24.068Z,10.17
2018-02-27T10:23:52.574Z,15.00
2018-02-27T10:26:20.924Z,16.40
2018-02-27T10:28:52.121Z,13.70
2018-02-27T10:31:20.521Z,12.37
2018-02-27T10:33:51.544Z,12.23
2018-02-27T10:36:21.629Z,14.33
2018-02-27T10:38:49.989Z,12.87
2018-02-27T10:41:18.347Z,12.20
2018-02-27T10:43:46.693Z,13.00
2018-02-27T10:46:17.678Z,13.27
2018-02-27T10:48:47.891Z,14.83
2018-02-27T10:53:52.451Z,12.80
2018-02-27T10:56:20.901Z,11.30
2018-02-27T10:58:49.281Z,14.10
2018-02-27T11:01:21.446Z,14.23
2018-02-27T11:03:49.825Z,15.07
2018-02-27T11:06:18.204Z,12.60
2018-02-27T11:08:49.523Z,12.33
2018-02-27T11:11:17.935Z,21.27
2018-02-27T11:13:46.396Z,14.77
2018-02-27T11:16:14.713Z,13.07
2018-02-27T11:18:43.166Z,13.90
2018-02-27T11:21:13.345Z,13.10
2018-02-27T11:23:42.286Z,12.90
2018-02-27T11:26:10.634Z,11.80
2018-02-27T11:28:41.784Z,13.40
2018-02-27T11:31:10.183Z,11.93
2018-02-27T11:33:38.590Z,13.80
2018-02-27T11:36:10.210Z,12.87
2018-02-27T11:38:38.673Z,12.43
2018-02-27T11:41:07.078Z,14.07
2018-02-27T11:43:35.613Z,12.80
2018-02-27T11:46:04.239Z,13.30
2018-02-27T11:48:32.617Z,13.97
2018-02-27T11:51:01.095Z,13.80
2018-02-27T11:53:30.372Z,12.60
2018-02-27T11:55:58.754Z,13.13
2018-02-27T11:58:27.144Z,14.07
2018-02-27T12:00:57.218Z,12.60
2018-02-27T12:03:26.445Z,12.60
2018-02-27T12:05:56.504Z,13.57
2018-02-27T12:08:29.104Z,14.07
2018-02-27T12:10:57.464Z,13.60
2018-02-27T12:13:25.935Z,13.60
2018-02-27T12:15:54.313Z,13.03
2018-02-27T12:18:24.358Z,13.47
2018-02-27T12:20:54.621Z,13.40
2018-02-27T12:23:26.002Z,13.90
2018-02-27T12:25:55.304Z,12.13
2018-02-27T12:28:24.398Z,13.87
2018-02-27T12:30:52.779Z,12.77
2018-02-27T12:33:21.284Z,11.30
2018-02-27T12:35:49.655Z,12.27
2018-02-27T12:38:20.584Z,12.10
2018-02-27T12:40:48.949Z,13.63
2018-02-27T12:43:17.449Z,13.43
2018-02-27T12:45:46.557Z,11.93
2018-02-27T12:48:15.671Z,14.77
2018-02-27T12:50:44.021Z,12.10
2018-02-27T12:53:12.408Z,13.70
2018-02-27T12:55:41.011Z,13.80
2018-02-27T12:58:09.391Z,13.07
2018-02-27T13:00:38.442Z,14.27
2018-02-27T13:03:06.831Z,13.33
2018-02-27T13:05:35.154Z,13.93
2018-02-27T13:08:03.477Z,13.33
2018-02-27T13:10:32.435Z,13.10
2018-02-27T13:13:00.842Z,13.70
2018-02-27T13:15:29.211Z,13.37
2018-02-27T13:17:57.575Z,12.97
2018-02-27T13:20:25.938Z,12.27
2018-02-27T13:22:55.888Z,14.57
2018-02-27T13:25:24.288Z,13.07
2018-02-27T13:27:52.651Z,13.40
2018-02-27T13:30:20.971Z,11.20
2018-02-27T13:32:49.448Z,12.87
2018-02-27T13:35:17.909Z,13.93
2018-02-27T13:37:46.299Z,14.50
2018-02-27T13:40:14.695Z,12.97
2018-02-27T13:42:43.125Z,12.33
2018-02-27T13:45:13.223Z,13.00
2018-02-27T13:47:41.591Z,15.23
2018-02-27T13:50:11.699Z,15.30
2018-02-27T13:52:40.082Z,14.97
2018-02-27T13:55:08.435Z,13.60
2018-02-27T13:57:36.909Z,15.10
2018-02-27T14:00:07.877Z,15.50
2018-02-27T14:02:36.240Z,14.87
2018-02-27T14:05:04.629Z,14.93
2018-02-27T14:07:34.703Z,13.83
2018-02-27T14:10:03.586Z,14.07
2018-02-27T14:12:33.545Z,14.33
2018-02-27T14:15:04.954Z,14.43
2018-02-27T14:17:35.010Z,13.80
2018-02-27T14:20:03.400Z,15.03
2018-02-27T14:22:31.861Z,14.10
2018-02-27T14:25:00.215Z,14.37
2018-02-27T14:27:29.344Z,14.47
2018-02-27T14:29:57.798Z,14.47
2018-02-27T14:32:26.182Z,13.70
2018-02-27T14:34:54.641Z,14.83
2018-02-27T14:37:23.123Z,13.97
2018-02-27T14:39:51.651Z,14.47
2018-02-27T14:42:20.062Z,14.00
2018-02-27T14:44:48.409Z,13.80
2018-02-27T14:47:16.754Z,13.97
2018-02-27T14:49:45.283Z,13.80
2018-02-27T14:52:13.652Z,13.90
2018-02-27T14:54:43.748Z,14.87
2018-02-27T14:57:12.142Z,14.10
2018-02-27T14:59:42.092Z,15.50
2018-02-27T15:02:10.544Z,14.87
2018-02-27T15:04:38.893Z,13.67
2018-02-27T15:07:07.501Z,14.53
2018-02-27T15:09:35.832Z,14.07
2018-02-27T15:12:04.250Z,13.23
2018-02-27T15:14:32.635Z,12.97
2018-02-27T15:17:01.076Z,13.20
2018-02-27T15:19:29.521Z,13.30
2018-02-27T15:21:57.902Z,12.30
2018-02-27T15:24:26.691Z,13.20
2018-02-27T15:26:57.184Z,12.97
2018-02-27T15:29:25.534Z,12.70
2018-02-27T15:31:53.872Z,12.00
2018-02-27T15:34:23.005Z,13.70
2018-02-27T15:36:51.309Z,13.63
2018-02-27T15:39:19.644Z,16.13
2018-02-27T15:41:49.746Z,15.10
2018-02-27T15:44:18.148Z,17.77
2018-02-27T15:46:48.207Z,14.83
2018-02-27T15:49:16.591Z,15.60
2018-02-27T15:51:44.932Z,14.40
2018-02-27T15:54:17.034Z,12.57
2018-02-27T15:56:45.439Z,14.57
2018-02-27T15:59:17.810Z,12.57
2018-02-27T16:01:48.105Z,11.57
2018-02-27T16:04:19.524Z,13.40
2018-02-27T16:06:47.865Z,13.60
2018-02-27T16:09:16.190Z,13.40
2018-02-27T16:11:45.301Z,14.57
2018-02-27T16:14:15.515Z,14.70
2018-02-27T16:16:43.864Z,14.70
2018-02-27T16:19:12.187Z,14.70
2018-02-27T16:21:42.160Z,12.17
2018-02-27T16:24:10.595Z,16.90
2018-02-27T16:26:40.596Z,13.97
2018-02-27T16:29:09.104Z,12.80
2018-02-27T16:31:37.493Z,13.50
2018-02-27T16:34:05.896Z,12.20
2018-02-27T16:36:34.290Z,15.63
2018-02-27T16:39:02.656Z,12.10
2018-02-27T16:41:31.169Z,13.70
2018-02-27T16:44:00.781Z,12.73
2018-02-27T16:46:33.321Z,12.87
2018-02-27T16:49:01.829Z,13.20
2018-02-27T16:51:30.208Z,13.97
2018-02-27T16:53:58.585Z,12.67
2018-02-27T16:56:27.566Z,15.57
2018-02-27T16:58:55.928Z,13.10
2018-02-27T17:01:24.303Z,13.60
2018-02-27T17:03:52.730Z,11.10
2018-02-27T17:06:21.057Z,13.30
2018-02-27T17:08:51.121Z,12.70
2018-02-27T17:11:22.044Z,13.17
2018-02-27T17:13:50.666Z,13.80
2018-02-27T17:16:18.968Z,12.60
2018-02-27T17:18:47.294Z,13.20
2018-02-27T17:21:15.862Z,13.60
2018-02-27T17:23:46.961Z,13.77
2018-02-27T17:26:16.488Z,14.70
2018-02-27T17:28:44.883Z,15.50
2018-02-27T17:31:15.037Z,13.90
2018-02-27T17:33:43.476Z,13.30
2018-02-27T17:36:11.944Z,12.77
2018-02-27T17:38:40.328Z,13.47
2018-02-27T17:41:08.682Z,16.40
2018-02-27T17:43:37.034Z,14.40
2018-02-27T17:46:06.084Z,14.00
2018-02-27T17:48:34.435Z,12.63
2018-02-27T17:51:04.387Z,12.50
2018-02-27T17:53:33.575Z,15.93
2018-02-27T17:56:03.804Z,14.37
2018-02-27T17:58:34.679Z,15.60
2018-02-27T18:01:03.024Z,13.20
2018-02-27T18:03:32.839Z,13.20
2018-02-27T18:06:01.277Z,13.50
2018-02-27T18:08:29.611Z,14.57
2018-02-27T18:10:57.976Z,14.10
2018-02-27T18:13:28.100Z,13.57
2018-02-27T18:15:56.494Z,13.90
2018-02-27T18:18:25.553Z,13.27
2018-02-27T18:20:53.883Z,14.10
2018-02-27T18:23:22.239Z,13.77
2018-02-27T18:25:52.230Z,15.17
2018-02-27T18:28:20.609Z,14.53
2018-02-27T18:30:48.965Z,14.70
2018-02-27T18:33:17.842Z,13.40
2018-02-27T18:35:46.187Z,14.37
2018-02-27T18:38:16.501Z,14.20
2018-02-27T18:40:47.182Z,13.77
2018-02-27T18:43:15.685Z,13.60
2018-02-27T18:45:44.162Z,14.20
2018-02-27T18:48:12.555Z,14.27
2018-02-27T18:50:40.928Z,14.87
2018-02-27T18:53:11.507Z,14.07
2018-02-27T18:55:39.884Z,13.80
2018-02-27T18:58:10.006Z,13.00
2018-02-27T19:00:38.655Z,13.80
2018-02-27T19:03:08.895Z,14.13
2018-02-27T19:05:37.288Z,13.67
2018-02-27T19:08:07.844Z,13.37
2018-02-27T19:10:38.774Z,14.30
2018-02-27T19:13:08.941Z,12.97
2018-02-27T19:15:37.306Z,13.70
2018-02-27T19:18:07.490Z,13.10
2018-02-27T19:20:36.010Z,13.70
2018-02-27T19:23:04.492Z,13.10
2018-02-27T19:25:32.896Z,13.47
2018-02-27T19:28:01.301Z,14.30
2018-02-27T19:30:29.763Z,12.60
2018-02-27T19:32:58.207Z,14.00
2018-02-27T19:35:26.705Z,15.10
2018-02-27T19:37:55.783Z,11.93
2018-02-27T19:40:25.287Z,12.83
2018-02-27T19:42:54.385Z,13.80
2018-02-27T19:45:22.781Z,13.87
2018-02-27T19:47:53.186Z,14.10
2018-02-27T19:50:23.915Z,13.80
2018-02-27T19:52:54.048Z,15.70
2018-02-27T19:55:22.443Z,15.03
2018-02-27T19:57:52.994Z,13.27
2018-02-27T20:00:22.151Z,13.53
2018-02-27T20:02:50.561Z,15.00
2018-02-27T20:05:20.109Z,13.37
2018-02-27T20:07:50.665Z,13.70
2018-02-27T20:10:19.168Z,13.57
2018-02-27T20:12:48.991Z,13.97
2018-02-27T20:15:20.098Z,14.43
2018-02-27T20:17:56.567Z,14.20
2018-02-27T20:20:25.689Z,13.60
2018-02-27T20:22:59.919Z,14.37
2018-02-27T20:25:30.216Z,12.97
2018-02-27T20:27:59.772Z,14.27
2018-02-27T20:30:30.744Z,13.90
2018-02-27T20:33:01.344Z,14.27
2018-02-27T20:35:30.819Z,14.47
2018-02-27T20:37:59.294Z,13.23
2018-02-27T20:40:28.008Z,14.43
2018-02-27T20:42:59.225Z,15.13
2018-02-27T20:45:27.783Z,17.87
2018-02-27T20:47:56.264Z,16.40
2018-02-27T20:50:24.768Z,14.57
2018-02-27T20:52:53.430Z,13.80
2018-02-27T20:55:23.786Z,13.60
2018-02-27T20:57:55.600Z,15.03
2018-02-27T21:00:26.749Z,15.10
2018-02-27T21:02:57.588Z,14.70
2018-02-27T21:05:26.188Z,14.50
2018-02-27T21:07:54.573Z,15.83
2018-02-27T21:10:23.002Z,15.60
2018-02-27T21:12:53.284Z,17.27
2018-02-27T21:15:21.872Z,17.57
2018-02-27T21:17:50.338Z,14.37
2018-02-27T21:20:18.821Z,16.67
2018-02-27T21:22:49.870Z,14.07
2018-02-27T21:35:05.171Z,11.77
2018-02-27T21:37:33.705Z,11.27
2018-02-27T21:40:02.222Z,11.10
2018-02-27T21:42:32.670Z,13.50
2018-02-27T21:45:01.372Z,11.90
2018-02-27T21:47:31.575Z,13.00
2018-02-27T21:49:59.967Z,12.50
2018-02-27T21:52:28.545Z,12.60
2018-02-27T21:54:59.602Z,13.80
2018-02-27T21:57:28.788Z,12.83
2018-02-27T21:59:58.604Z,11.30
2018-02-27T22:02:27.826Z,15.60
2018-02-27T22:04:58.946Z,13.87
2018-02-27T22:07:27.365Z,14.20
2018-02-27T22:09:57.333Z,14.07
2018-02-27T22:12:26.449Z,13.73
2018-02-27T22:14:56.636Z,12.40
2018-02-27T22:17:25.096Z,13.90
2018-02-27T22:19:53.679Z,13.23
2018-02-27T22:22:21.986Z,13.60
2018-02-27T22:24:51.108Z,12.40
2018-02-27T22:27:19.471Z,12.07
2018-02-27T22:29:47.840Z,14.37
2018-02-27T22:32:16.186Z,15.10
2018-02-27T22:34:44.512Z,14.27
2018-02-27T22:37:12.940Z,13.87
2018-02-27T22:39:42.070Z,13.40
2018-02-27T22:42:10.615Z,15.67
2018-02-27T22:44:38.966Z,13.50
2018-02-27T22:47:09.557Z,14.90
2018-02-27T22:49:40.451Z,13.50
2018-02-27T22:52:08.876Z,15.40
2018-02-27T22:54:37.189Z,15.80
2018-02-27T22:57:06.623Z,14.17
2018-02-27T22:59:37.570Z,14.03
2018-02-27T23:02:06.479Z,14.47
2018-02-27T23:04:34.840Z,14.43
2018-02-27T23:07:03.163Z,14.07
2018-02-27T23:09:33.776Z,14.80
2018-02-27T23:12:02.224Z,16.37
2018-02-27T23:14:33.200Z,17.07
2018-02-27T23:17:01.664Z,15.73
2018-02-27T23:19:30.232Z,15.97
2018-02-27T23:21:58.576Z,15.73
2018-02-27T23:24:35.527Z,16.00
2018-02-27T23:27:05.711Z,15.83
2018-02-27T23:29:34.526Z,14.70
2018-02-27T23:32:04.641Z,15.53
2018-02-27T23:34:47.398Z,16.10
2018-02-27T23:37:18.341Z,14.57
2018-02-27T23:39:49.440Z,14.40
2018-02-27T23:42:17.852Z,15.10
2018-02-27T23:44:48.036Z,14.40
2018-02-27T23:47:16.595Z,15.17
2018-02-27T23:49:44.944Z,15.70
2018-02-27T23:52:14.395Z,14.63
2018-02-27T23:54:43.807Z,14.20
2018-02-27T23:57:12.209Z,14.50
2018-02-27T23:59:42.374Z,13.80
